Time;durP1;ratioP1;P1;durP2;ratioP2;P2;SDS_P1;SDS_P2;PMS_P1;PMS_P2;Temp;Humidity;BMP_temperature;BMP_pressure;BME280_temperature;BME280_humidity;BME280_pressure;Samples;Min_cycle;Max_cycle;Signal;HPM_P1;HPM_P2
2022/01/11 00:00:45;;;;;;;28.02;13.15;;;-3.30;90.30;;;;;;5014122;28;20387;-77
2022/01/11 00:03:10;;;;;;;29.20;13.93;;;-3.30;89.90;;;;;;5014294;28;20080;-77
2022/01/11 00:05:43;;;;;;;25.92;14.45;;;-3.30;90.20;;;;;;5014171;28;20468;-77
2022/01/11 00:08:10;;;;;;;31.48;17.73;;;-3.30;90.40;;;;;;5031957;28;20052;-77
2022/01/11 00:10:51;;;;;;;26.65;13.50;;;-3.30;91.40;;;;;;5031731;28;20021;-77
2022/01/11 00:13:18;;;;;;;27.52;13.30;;;-3.30;91.40;;;;;;5014065;28;20124;-77
2022/01/11 00:15:44;;;;;;;28.75;14.43;;;-3.30;92.10;;;;;;5013478;28;20111;-77
2022/01/11 00:18:10;;;;;;;28.00;15.63;;;-3.30;91.40;;;;;;5031385;28;20511;-77
2022/01/11 00:20:38;;;;;;;24.65;13.18;;;-3.30;92.00;;;;;;5028887;28;20111;-77
2022/01/11 00:25:32;;;;;;;21.27;10.57;;;-3.40;88.70;;;;;;5031586;28;20037;-77
2022/01/11 00:27:58;;;;;;;24.88;13.55;;;-3.30;87.90;;;;;;5031915;28;20100;-77
2022/01/11 00:30:29;;;;;;;27.08;13.18;;;-3.30;88.20;;;;;;5031491;28;20030;-77
2022/01/11 00:32:57;;;;;;;22.17;12.10;;;-3.30;88.90;;;;;;5031482;28;20044;-77
2022/01/11 00:35:27;;;;;;;39.97;12.77;;;-3.30;89.80;;;;;;5031416;28;20013;-76
2022/01/11 00:37:54;;;;;;;27.27;13.57;;;-3.30;89.90;;;;;;5031550;28;20071;-77
2022/01/11 00:40:20;;;;;;;25.15;12.75;;;-3.30;90.10;;;;;;5031382;28;20025;-77
2022/01/11 00:42:46;;;;;;;24.75;12.75;;;-3.30;88.60;;;;;;5029920;28;20034;-77
2022/01/11 00:45:12;;;;;;;25.80;12.52;;;-3.30;89.00;;;;;;5031299;28;20487;-77
2022/01/11 00:47:39;;;;;;;22.70;12.00;;;-3.30;88.50;;;;;;5030070;28;20436;-77
2022/01/11 00:50:07;;;;;;;19.60;10.35;;;-3.30;87.50;;;;;;5030055;28;20017;-77
2022/01/11 00:52:33;;;;;;;22.67;11.10;;;-3.40;85.70;;;;;;5031222;28;20033;-77
2022/01/11 00:54:58;;;;;;;22.45;11.93;;;-3.40;84.60;;;;;;5029994;28;20559;-77
2022/01/11 00:57:24;;;;;;;22.10;12.35;;;-3.40;86.20;;;;;;5031280;28;20443;-77
2022/01/11 00:59:50;;;;;;;21.58;12.25;;;-3.40;87.50;;;;;;5031059;28;20603;-77
2022/01/11 01:02:15;;;;;;;22.15;11.80;;;-3.30;88.40;;;;;;5031229;28;20025;-77
2022/01/11 01:04:41;;;;;;;22.58;11.38;;;-3.40;88.20;;;;;;5031100;28;20490;-77
2022/01/11 01:07:07;;;;;;;26.25;13.10;;;-3.40;88.30;;;;;;5029853;28;20018;-77
2022/01/11 01:12:17;;;;;;;24.85;11.52;;;-3.40;87.70;;;;;;5031384;28;20502;-77
2022/01/11 01:14:42;;;;;;;22.35;11.70;;;-3.40;86.90;;;;;;5029689;28;20033;-77
2022/01/11 01:17:08;;;;;;;20.08;11.25;;;-3.40;87.20;;;;;;5029742;28;20018;-77
2022/01/11 01:19:34;;;;;;;24.30;12.07;;;-3.40;87.50;;;;;;5029577;28;20018;-77
2022/01/11 01:21:59;;;;;;;22.00;12.13;;;-3.40;88.40;;;;;;5030019;28;20025;-77
2022/01/11 01:24:25;;;;;;;18.13;9.13;;;-3.40;88.10;;;;;;5029620;28;20117;-77
2022/01/11 01:26:50;;;;;;;17.67;10.00;;;-3.40;87.60;;;;;;5031234;28;20014;-78
2022/01/11 01:29:16;;;;;;;22.13;10.13;;;-3.50;85.50;;;;;;5034342;28;20506;-77
2022/01/11 01:31:42;;;;;;;20.52;9.30;;;-3.50;85.60;;;;;;5033506;28;20022;-77
2022/01/11 01:34:07;;;;;;;19.27;11.13;;;-3.50;86.40;;;;;;5033438;28;20403;-78
2022/01/11 01:36:33;;;;;;;22.73;10.27;;;-3.50;86.70;;;;;;5033312;28;20064;-77
2022/01/11 01:38:59;;;;;;;17.60;10.38;;;-3.50;87.10;;;;;;5034702;28;20087;-77
2022/01/11 01:41:26;;;;;;;22.05;11.15;;;-3.50;85.60;;;;;;5033333;28;20556;-77
2022/01/11 01:43:55;;;;;;;16.85;9.27;;;-3.50;85.80;;;;;;5034595;28;20036;-77
2022/01/11 01:46:22;;;;;;;22.92;11.20;;;-3.50;85.70;;;;;;5066431;28;20475;-77
2022/01/11 01:48:48;;;;;;;19.17;9.70;;;-3.50;85.70;;;;;;5033153;28;20136;-77
2022/01/11 01:51:14;;;;;;;17.35;10.00;;;-3.50;86.20;;;;;;5034491;28;20474;-77
2022/01/11 01:53:44;;;;;;;22.45;10.23;;;-3.50;86.10;;;;;;5034664;28;20065;-77
2022/01/11 01:56:10;;;;;;;21.60;10.82;;;-3.50;86.70;;;;;;5033137;28;20364;-77
2022/01/11 01:58:37;;;;;;;22.20;11.15;;;-3.50;86.80;;;;;;5034286;28;20022;-77
2022/01/11 02:01:04;;;;;;;18.23;11.55;;;-3.50;87.00;;;;;;5032960;28;20024;-77
2022/01/11 02:03:36;;;;;;;20.98;10.38;;;-3.50;87.40;;;;;;5034206;28;20021;-77
2022/01/11 02:06:03;;;;;;;18.40;10.65;;;-3.50;87.10;;;;;;5032919;28;20387;-76
2022/01/11 02:08:28;;;;;;;23.20;11.38;;;-3.50;87.30;;;;;;5032785;28;20037;-77
2022/01/11 02:10:54;;;;;;;19.40;10.00;;;-3.60;88.40;;;;;;5034026;28;20022;-77
2022/01/11 02:13:20;;;;;;;18.90;10.70;;;-3.60;87.90;;;;;;5032689;28;20434;-78
2022/01/11 02:15:46;;;;;;;22.30;12.38;;;-3.60;88.60;;;;;;5033928;28;20056;-77
2022/01/11 02:18:15;;;;;;;20.40;10.20;;;-3.60;87.50;;;;;;5032693;28;20459;-78
2022/01/11 02:20:45;;;;;;;24.20;10.45;;;-3.70;87.70;;;;;;5032595;28;20365;-77
2022/01/11 02:23:12;;;;;;;21.67;10.48;;;-3.70;88.60;;;;;;5032586;28;20024;-77
2022/01/11 02:25:38;;;;;;;24.45;11.35;;;-3.70;89.40;;;;;;5033811;28;20043;-77
2022/01/11 02:28:06;;;;;;;19.17;11.02;;;-3.70;90.20;;;;;;5033846;28;20025;-77
2022/01/11 02:30:33;;;;;;;19.50;11.00;;;-3.80;90.70;;;;;;5032323;28;20018;-77
2022/01/11 02:33:01;;;;;;;20.15;10.38;;;-3.80;91.20;;;;;;5032538;28;20119;-77
2022/01/11 02:35:27;;;;;;;18.92;11.15;;;-3.80;92.10;;;;;;5032324;28;20395;-77
2022/01/11 02:37:53;;;;;;;17.92;10.65;;;-3.80;92.50;;;;;;5033623;28;20021;-77
2022/01/11 02:40:19;;;;;;;21.70;12.13;;;-3.80;93.10;;;;;;5031304;28;20022;-76
2022/01/11 02:42:44;;;;;;;18.45;9.50;;;-3.90;93.90;;;;;;5033545;28;20032;-77
2022/01/11 02:45:16;;;;;;;20.02;11.00;;;-3.80;93.70;;;;;;5032063;28;20537;-76
2022/01/11 02:47:44;;;;;;;20.50;11.27;;;-3.90;94.20;;;;;;5032056;28;20047;-77
2022/01/11 02:50:10;;;;;;;21.55;11.38;;;-3.90;94.80;;;;;;5033429;28;20403;-77
2022/01/11 02:52:36;;;;;;;21.58;11.35;;;-3.90;95.40;;;;;;5033272;28;20041;-77
2022/01/11 02:55:06;;;;;;;23.17;11.48;;;-3.90;95.40;;;;;;5033289;28;20026;-77
2022/01/11 02:57:32;;;;;;;19.00;11.57;;;-3.90;95.90;;;;;;5032290;28;20340;-77
2022/01/11 02:59:58;;;;;;;22.75;12.00;;;-4.00;95.20;;;;;;5033265;28;20076;-76
2022/01/11 03:02:24;;;;;;;19.33;10.82;;;-4.00;95.60;;;;;;5031874;28;20028;-77
2022/01/11 03:04:50;;;;;;;22.92;11.93;;;-4.00;96.00;;;;;;5033055;28;20083;-77
2022/01/11 03:07:22;;;;;;;23.98;12.60;;;-4.10;96.70;;;;;;5033047;28;20426;-77
2022/01/11 03:10:08;;;;;;;23.25;11.82;;;-4.10;97.40;;;;;;5033076;28;20068;-77
2022/01/11 03:12:35;;;;;;;23.50;11.07;;;-4.10;98.30;;;;;;5032978;28;20029;-76
2022/01/11 03:15:00;;;;;;;18.52;11.32;;;-4.10;98.90;;;;;;5045972;28;20536;-77
2022/01/11 03:17:26;;;;;;;21.85;10.98;;;-4.10;99.00;;;;;;5068144;28;20025;-77
2022/01/11 03:19:53;;;;;;;22.83;11.15;;;-4.10;99.10;;;;;;5018887;28;20017;-77
2022/01/11 03:22:19;;;;;;;20.95;11.70;;;-4.10;99.20;;;;;;5015020;28;20036;-77
2022/01/11 03:24:45;;;;;;;21.95;12.50;;;-4.20;98.80;;;;;;5032586;28;20029;-76
2022/01/11 03:27:11;;;;;;;20.88;11.75;;;-4.10;99.10;;;;;;5014922;28;20021;-77
2022/01/11 03:29:40;;;;;;;24.45;11.50;;;-4.20;99.50;;;;;;5014654;28;20032;-77
2022/01/11 03:32:06;;;;;;;17.90;10.65;;;-4.20;99.90;;;;;;5038831;28;20067;-77
2022/01/11 03:34:32;;;;;;;20.52;11.68;;;-4.20;99.90;;;;;;5034383;28;20119;-77
2022/01/11 03:36:58;;;;;;;23.90;12.25;;;-4.20;99.90;;;;;;5052331;28;20096;-77
2022/01/11 03:39:25;;;;;;;22.13;12.25;;;-4.20;99.90;;;;;;5052562;28;20017;-77
2022/01/11 03:41:50;;;;;;;22.40;12.80;;;-4.20;99.90;;;;;;5052321;28;20025;-77
2022/01/11 03:44:16;;;;;;;21.05;11.00;;;-4.20;99.90;;;;;;5052280;28;20070;-77
2022/01/11 03:46:42;;;;;;;20.13;11.02;;;-4.20;99.90;;;;;;5034157;28;20510;-78
2022/01/11 03:49:07;;;;;;;20.05;10.30;;;-4.10;99.90;;;;;;5052113;28;20052;-77
2022/01/11 03:51:36;;;;;;;22.02;10.90;;;-4.10;99.90;;;;;;5067264;28;20437;-76
2022/01/11 03:54:09;;;;;;;21.73;11.32;;;-4.10;99.90;;;;;;5051984;28;20036;-76
2022/01/11 03:56:35;;;;;;;20.88;13.07;;;-4.10;99.90;;;;;;5034124;28;20166;-77
2022/01/11 03:59:06;;;;;;;18.50;10.77;;;-4.10;99.90;;;;;;5036635;28;20517;-77
2022/01/11 04:01:32;;;;;;;21.40;11.00;;;-4.10;99.90;;;;;;5014161;28;20124;-77
2022/01/11 04:03:58;;;;;;;20.65;11.18;;;-4.10;99.90;;;;;;5031952;28;20032;-77
2022/01/11 04:06:25;;;;;;;19.70;10.35;;;-4.10;99.90;;;;;;5014361;28;20026;-77
2022/01/11 04:08:52;;;;;;;19.63;11.73;;;-4.10;99.90;;;;;;5031866;28;20126;-77
2022/01/11 04:11:17;;;;;;;18.45;10.63;;;-4.10;99.90;;;;;;5031878;28;20021;-77
2022/01/11 04:13:43;;;;;;;20.80;11.90;;;-4.00;99.90;;;;;;5031676;28;20044;-78
2022/01/11 04:16:09;;;;;;;22.65;11.90;;;-4.00;99.90;;;;;;5031852;28;20529;-77
2022/01/11 04:18:36;;;;;;;21.20;10.25;;;-4.00;99.90;;;;;;5013919;28;20112;-77
2022/01/11 04:21:02;;;;;;;22.92;10.70;;;-4.00;99.90;;;;;;5031688;28;20032;-77
2022/01/11 04:23:28;;;;;;;21.42;11.68;;;-4.00;99.90;;;;;;5013860;28;20105;-77
2022/01/11 04:25:54;;;;;;;18.23;10.77;;;-4.00;99.90;;;;;;5031547;28;20108;-77
2022/01/11 04:28:23;;;;;;;18.40;10.25;;;-3.90;99.90;;;;;;5013889;28;20013;-77
2022/01/11 04:30:59;;;;;;;18.25;10.18;;;-3.90;99.90;;;;;;5031508;28;20482;-77
2022/01/11 04:33:29;;;;;;;25.33;10.68;;;-3.90;99.90;;;;;;5031741;28;20033;-77
2022/01/11 04:35:55;;;;;;;19.92;11.13;;;-3.90;99.90;;;;;;5013699;28;20032;-77
2022/01/11 04:38:24;;;;;;;20.33;10.35;;;-3.90;99.90;;;;;;5031483;28;20021;-78
2022/01/11 04:40:50;;;;;;;20.35;10.98;;;-4.00;99.90;;;;;;5031311;28;20079;-77
2022/01/11 04:43:16;;;;;;;25.52;11.27;;;-3.90;99.90;;;;;;5031422;28;20025;-77
2022/01/11 04:45:41;;;;;;;21.73;11.77;;;-3.90;99.90;;;;;;5031428;28;20434;-77
2022/01/11 04:48:07;;;;;;;19.23;11.60;;;-3.90;99.90;;;;;;5013583;28;20014;-77
2022/01/11 04:50:34;;;;;;;25.80;12.80;;;-3.80;99.90;;;;;;5013551;28;20026;-77
2022/01/11 04:53:00;;;;;;;22.73;11.75;;;-3.90;99.90;;;;;;5013513;28;20037;-77
2022/01/11 04:55:26;;;;;;;21.90;12.15;;;-3.90;99.90;;;;;;5031092;28;20025;-77
2022/01/11 04:57:51;;;;;;;25.67;12.52;;;-3.90;99.90;;;;;;5013471;28;20163;-77
2022/01/11 05:00:19;;;;;;;25.88;12.48;;;-3.90;99.90;;;;;;5013344;28;20424;-77
2022/01/11 05:02:45;;;;;;;23.55;13.30;;;-4.00;99.90;;;;;;5014386;28;20064;-77
2022/01/11 05:05:11;;;;;;;29.70;14.93;;;-4.00;99.90;;;;;;5017463;28;20021;-77
2022/01/11 05:07:37;;;;;;;27.52;13.88;;;-4.00;99.90;;;;;;5017495;28;20021;-78
2022/01/11 05:10:04;;;;;;;25.40;14.13;;;-4.10;99.90;;;;;;5017443;28;20341;-77
2022/01/11 05:12:30;;;;;;;28.17;14.27;;;-4.20;99.90;;;;;;5017280;28;20033;-76
2022/01/11 05:14:56;;;;;;;35.38;17.35;;;-4.20;99.90;;;;;;5035418;28;20140;-77
2022/01/11 05:17:21;;;;;;;36.10;18.35;;;-4.30;99.90;;;;;;5035094;28;20049;-77
2022/01/11 05:19:47;;;;;;;35.95;19.48;;;-4.30;99.90;;;;;;5017058;28;20486;-77
2022/01/11 05:22:13;;;;;;;47.42;20.17;;;-4.40;99.90;;;;;;5017360;28;20053;-77
2022/01/11 05:24:38;;;;;;;31.58;15.65;;;-4.40;99.90;;;;;;5034816;28;20431;-77
2022/01/11 05:27:04;;;;;;;38.53;18.77;;;-4.50;99.90;;;;;;5017254;28;20017;-78
2022/01/11 05:29:31;;;;;;;39.60;17.40;;;-4.50;99.90;;;;;;5034792;28;20025;-77
2022/01/11 05:31:58;;;;;;;42.63;20.60;;;-4.60;99.90;;;;;;5016969;28;20053;-77
2022/01/11 05:34:25;;;;;;;38.75;17.40;;;-4.70;99.90;;;;;;5034622;28;20112;-76
2022/01/11 05:36:51;;;;;;;35.75;18.65;;;-4.70;99.90;;;;;;5016933;28;20029;-76
2022/01/11 05:39:17;;;;;;;42.80;21.05;;;-4.70;99.90;;;;;;5017037;28;20028;-76
2022/01/11 05:41:42;;;;;;;50.95;22.27;;;-4.80;99.90;;;;;;5016732;28;20021;-78
2022/01/11 05:44:08;;;;;;;40.38;20.10;;;-4.90;99.90;;;;;;5016841;28;20018;-77
2022/01/11 05:46:33;;;;;;;50.97;22.92;;;-4.90;99.90;;;;;;5015614;28;20057;-77
2022/01/11 05:48:59;;;;;;;53.17;21.17;;;-5.00;99.90;;;;;;5014371;28;20025;-77
2022/01/11 05:51:26;;;;;;;47.58;22.40;;;-5.10;99.90;;;;;;5034246;28;20029;-77
2022/01/11 05:53:53;;;;;;;46.83;23.50;;;-5.10;99.90;;;;;;5048939;28;20032;-77
2022/01/11 05:56:19;;;;;;;47.83;22.02;;;-5.20;99.90;;;;;;5032401;28;20028;-77
2022/01/11 05:58:44;;;;;;;51.55;24.92;;;-5.20;99.90;;;;;;5047799;28;20446;-77
2022/01/11 06:01:10;;;;;;;52.33;24.50;;;-5.30;99.90;;;;;;5032330;28;20029;-77
2022/01/11 06:03:36;;;;;;;65.90;28.35;;;-5.30;99.90;;;;;;5032658;28;20036;-76
2022/01/11 06:06:01;;;;;;;54.55;25.83;;;-5.40;99.90;;;;;;5031501;28;20037;-77
2022/01/11 06:08:27;;;;;;;61.42;27.25;;;-5.40;99.90;;;;;;5047188;28;20506;-77
2022/01/11 06:10:52;;;;;;;50.85;25.05;;;-5.50;99.90;;;;;;5048927;28;20360;-77
2022/01/11 06:13:18;;;;;;;42.33;21.13;;;-5.60;99.90;;;;;;5048746;28;20041;-77
2022/01/11 06:15:44;;;;;;;41.25;20.65;;;-5.60;99.90;;;;;;5032753;28;20322;-77
2022/01/11 06:18:09;;;;;;;52.22;24.33;;;-5.70;99.90;;;;;;5033670;28;20028;-82
2022/01/11 06:20:35;;;;;;;50.83;23.27;;;-5.70;99.90;;;;;;5046492;28;20356;-76
2022/01/11 06:23:01;;;;;;;56.28;24.23;;;-5.80;99.90;;;;;;5015042;28;20064;-78
2022/01/11 06:25:26;;;;;;;46.33;21.50;;;-5.90;99.90;;;;;;5015249;28;20021;-76
2022/01/11 06:27:52;;;;;;;48.45;23.13;;;-6.00;99.90;;;;;;5015207;28;20140;-77
2022/01/11 06:30:18;;;;;;;46.30;22.33;;;-6.00;99.90;;;;;;5030997;28;20021;-77
2022/01/11 06:32:44;;;;;;;42.30;20.27;;;-6.10;99.90;;;;;;5014863;28;20051;-75
2022/01/11 06:35:12;;;;;;;51.23;24.97;;;-6.10;99.90;;;;;;5033150;28;20021;-76
2022/01/11 06:37:38;;;;;;;55.72;25.27;;;-6.20;99.90;;;;;;5014608;28;20038;-74
2022/01/11 06:40:04;;;;;;;50.13;25.73;;;-6.20;99.90;;;;;;5047736;28;20018;-75
2022/01/11 06:42:31;;;;;;;48.57;24.90;;;-6.30;99.90;;;;;;5047312;28;20033;-75
2022/01/11 06:44:57;;;;;;;49.75;21.67;;;-6.30;99.90;;;;;;5032553;28;20068;-75
2022/01/11 06:47:22;;;;;;;49.95;24.65;;;-6.40;99.90;;;;;;5033227;28;20112;-76
2022/01/11 06:49:48;;;;;;;53.65;23.92;;;-6.40;99.90;;;;;;5015480;28;20132;-75
2022/01/11 06:52:14;;;;;;;67.57;30.57;;;-6.50;99.90;;;;;;5033302;28;20479;-76
2022/01/11 06:54:40;;;;;;;61.22;27.30;;;-6.60;99.90;;;;;;5012773;28;20029;-74
2022/01/11 06:57:09;;;;;;;61.20;25.60;;;-6.70;99.90;;;;;;5032523;28;20067;-75
2022/01/11 06:59:36;;;;;;;58.10;26.37;;;-6.80;99.90;;;;;;5032309;28;20029;-75
2022/01/11 07:02:03;;;;;;;131.70;55.33;;;-6.80;99.90;;;;;;5031756;28;20577;-76
2022/01/11 07:04:29;;;;;;;74.87;33.67;;;-6.70;99.90;;;;;;5013743;28;20065;-75
2022/01/11 07:06:55;;;;;;;76.67;35.10;;;-6.70;99.90;;;;;;5046679;28;20065;-76
2022/01/11 07:09:20;;;;;;;70.43;30.53;;;-6.70;99.90;;;;;;5032651;28;20021;-75
2022/01/11 07:11:46;;;;;;;73.07;33.07;;;-6.60;99.90;;;;;;5032726;28;20502;-75
2022/01/11 07:14:12;;;;;;;67.90;32.92;;;-6.60;99.90;;;;;;5046441;28;20395;-75
2022/01/11 07:16:38;;;;;;;66.72;31.20;;;-6.60;99.90;;;;;;5046161;28;20040;-75
2022/01/11 07:19:04;;;;;;;77.13;33.80;;;-6.50;99.90;;;;;;5031343;28;20036;-75
2022/01/11 07:21:30;;;;;;;75.77;33.07;;;-6.60;99.90;;;;;;5031905;28;20401;-76
2022/01/11 07:23:56;;;;;;;68.33;30.43;;;-6.50;99.90;;;;;;5032093;28;20033;-75
2022/01/11 07:26:21;;;;;;;71.82;32.45;;;-6.50;99.90;;;;;;5031520;28;20104;-74
2022/01/11 07:28:47;;;;;;;70.87;30.13;;;-6.50;99.90;;;;;;5032379;28;20013;-75
2022/01/11 07:31:14;;;;;;;67.70;29.07;;;-6.40;99.90;;;;;;5014812;28;20356;-75
2022/01/11 07:33:39;;;;;;;66.60;32.50;;;-6.40;99.90;;;;;;5032688;28;20038;-75
2022/01/11 07:36:05;;;;;;;67.28;31.35;;;-6.40;99.90;;;;;;5047694;28;20028;-75
2022/01/11 07:38:31;;;;;;;72.47;32.20;;;-6.30;99.90;;;;;;5032331;28;20026;-76
2022/01/11 07:40:56;;;;;;;75.03;33.90;;;-6.30;99.90;;;;;;5032231;28;20087;-75
2022/01/11 07:43:22;;;;;;;92.23;42.10;;;-6.20;99.90;;;;;;5032306;28;20143;-75
2022/01/11 07:45:47;;;;;;;126.23;46.37;;;-6.20;99.90;;;;;;5046790;28;20033;-75
2022/01/11 07:48:13;;;;;;;133.90;47.60;;;-6.10;99.90;;;;;;5014425;28;20021;-75
2022/01/11 07:50:39;;;;;;;90.43;39.90;;;-6.10;99.90;;;;;;5014305;28;20028;-74
2022/01/11 07:53:05;;;;;;;83.07;37.22;;;-6.00;99.90;;;;;;5014408;28;20144;-76
2022/01/11 07:55:32;;;;;;;77.97;33.28;;;-6.00;99.90;;;;;;5031960;28;20037;-75
2022/01/11 07:57:57;;;;;;;86.90;41.83;;;-5.90;99.90;;;;;;5014172;28;20364;-76
2022/01/11 08:00:23;;;;;;;105.13;48.45;;;-5.80;99.90;;;;;;5031977;28;20101;-75
2022/01/11 08:02:48;;;;;;;98.25;40.55;;;-5.80;99.90;;;;;;5014026;28;20112;-76
2022/01/11 08:05:15;;;;;;;107.43;48.50;;;-5.80;99.90;;;;;;5031832;28;20106;-76
2022/01/11 08:07:42;;;;;;;139.75;62.00;;;-5.70;99.90;;;;;;5031748;28;20090;-75
2022/01/11 08:10:11;;;;;;;116.22;48.13;;;-5.70;99.90;;;;;;5031788;28;20021;-75
2022/01/11 08:12:37;;;;;;;77.55;36.47;;;-5.60;99.90;;;;;;5013846;28;20475;-76
2022/01/11 08:15:03;;;;;;;77.43;36.35;;;-5.60;99.90;;;;;;5031657;28;20478;-75
2022/01/11 08:17:29;;;;;;;83.18;33.72;;;-5.60;99.90;;;;;;5031598;28;20022;-76
2022/01/11 08:19:55;;;;;;;78.03;35.03;;;-5.60;99.90;;;;;;5013810;28;20030;-75
2022/01/11 08:22:21;;;;;;;102.80;43.70;;;-5.50;99.90;;;;;;5031647;28;20037;-75
2022/01/11 08:24:46;;;;;;;103.25;47.03;;;-5.40;99.90;;;;;;5031384;28;20116;-75
2022/01/11 08:27:13;;;;;;;110.70;50.80;;;-5.40;99.90;;;;;;5013855;28;20018;-76
2022/01/11 08:29:39;;;;;;;105.25;51.65;;;-5.30;99.90;;;;;;5013595;28;20064;-75
2022/01/11 08:32:06;;;;;;;101.90;49.17;;;-5.20;99.90;;;;;;5046835;28;20026;-74
2022/01/11 08:34:32;;;;;;;111.05;48.67;;;-5.10;99.90;;;;;;5013793;28;20041;-73
2022/01/11 08:36:59;;;;;;;94.07;42.60;;;-5.00;99.90;;;;;;5030726;28;20022;-76
2022/01/11 08:39:25;;;;;;;82.75;39.58;;;-4.90;99.90;;;;;;5013309;28;20033;-75
2022/01/11 08:41:52;;;;;;;79.82;37.67;;;-4.80;99.90;;;;;;5013600;28;20021;-75
2022/01/11 08:44:20;;;;;;;87.10;40.03;;;-4.90;99.90;;;;;;5031342;28;20021;-75
2022/01/11 08:46:47;;;;;;;82.85;38.25;;;-4.80;99.90;;;;;;5031189;28;20037;-75
2022/01/11 08:49:13;;;;;;;93.93;40.80;;;-4.60;99.90;;;;;;5031183;28;20034;-75
2022/01/11 08:51:39;;;;;;;102.40;43.75;;;-4.60;99.90;;;;;;5031178;28;20101;-76
2022/01/11 08:54:05;;;;;;;93.00;38.67;;;-4.50;99.90;;;;;;5031172;28;20079;-75
2022/01/11 08:56:32;;;;;;;100.05;42.10;;;-4.40;99.90;;;;;;5031108;28;20028;-75
2022/01/11 08:58:58;;;;;;;94.40;41.25;;;-4.40;99.90;;;;;;5031031;28;20033;-76
2022/01/11 09:01:26;;;;;;;98.68;43.33;;;-4.30;99.90;;;;;;5013308;28;20021;-75
2022/01/11 09:03:52;;;;;;;93.00;42.47;;;-4.30;99.90;;;;;;5031060;28;20028;-75
2022/01/11 09:06:19;;;;;;;95.43;42.20;;;-4.30;99.90;;;;;;5031121;28;20390;-75
2022/01/11 09:08:44;;;;;;;86.82;42.67;;;-4.20;99.90;;;;;;5013015;28;20188;-75
2022/01/11 09:11:10;;;;;;;85.50;37.45;;;-4.10;99.90;;;;;;5021732;28;20567;-76
2022/01/11 09:13:37;;;;;;;78.13;33.10;;;-4.10;99.90;;;;;;5024888;28;20037;-75
2022/01/11 09:16:04;;;;;;;83.82;35.20;;;-4.10;99.90;;;;;;5030268;28;20518;-75
2022/01/11 09:18:30;;;;;;;79.10;34.03;;;-4.10;99.90;;;;;;5012790;28;20017;-75
2022/01/11 09:21:00;;;;;;;81.30;32.30;;;-4.00;99.90;;;;;;5028398;28;20498;-75
2022/01/11 09:23:29;;;;;;;77.93;35.05;;;-4.00;99.90;;;;;;5028367;28;20026;-75
2022/01/11 09:25:55;;;;;;;78.47;35.25;;;-3.80;99.90;;;;;;5029313;28;20029;-74
2022/01/11 09:28:22;;;;;;;76.65;35.03;;;-3.80;99.90;;;;;;5030818;28;20518;-75
2022/01/11 09:30:48;;;;;;;72.38;32.63;;;-3.80;99.90;;;;;;5048582;28;20013;-75
2022/01/11 09:33:13;;;;;;;67.57;32.28;;;-3.60;99.90;;;;;;5048352;28;20039;-75
2022/01/11 09:35:40;;;;;;;70.55;31.77;;;-3.60;99.90;;;;;;5050360;28;20048;-75
2022/01/11 09:38:05;;;;;;;66.13;30.48;;;-3.50;99.90;;;;;;5031527;28;20082;-75
2022/01/11 09:40:31;;;;;;;49.15;22.75;;;-3.40;99.90;;;;;;5017323;28;20025;-77
2022/01/11 09:42:57;;;;;;;46.17;21.45;;;-3.40;99.90;;;;;;5030421;28;20021;-77
2022/01/11 09:45:23;;;;;;;48.88;21.25;;;-3.40;99.90;;;;;;5030650;28;20033;-78
2022/01/11 09:47:48;;;;;;;45.75;22.30;;;-3.20;99.90;;;;;;5012978;28;20028;-77
2022/01/11 09:50:15;;;;;;;42.60;18.75;;;-3.10;99.90;;;;;;5034053;28;20026;-77
2022/01/11 09:52:41;;;;;;;38.58;20.23;;;-3.10;99.90;;;;;;5034624;28;20029;-78
2022/01/11 09:55:10;;;;;;;47.00;21.10;;;-3.00;99.90;;;;;;5016555;28;20018;-77
2022/01/11 09:57:36;;;;;;;35.63;19.30;;;-2.90;99.90;;;;;;5016364;28;20030;-77
2022/01/11 10:00:03;;;;;;;43.30;20.63;;;-2.80;99.90;;;;;;5034080;28;20028;-77
2022/01/11 10:02:28;;;;;;;40.20;19.33;;;-2.80;99.90;;;;;;5034142;28;20040;-77
2022/01/11 10:05:01;;;;;;;41.40;18.40;;;-2.80;99.90;;;;;;5016429;28;20542;-77
2022/01/11 10:07:31;;;;;;;41.85;18.70;;;-2.80;99.90;;;;;;5033170;28;20100;-77
2022/01/11 10:09:58;;;;;;;37.13;18.90;;;-2.90;99.90;;;;;;5016302;28;20022;-77
2022/01/11 10:12:24;;;;;;;43.67;18.52;;;-2.90;99.90;;;;;;5016698;28;20412;-77
2022/01/11 10:14:58;;;;;;;38.85;18.70;;;-2.80;99.90;;;;;;5033864;28;20029;-77
2022/01/11 10:17:29;;;;;;;32.60;16.27;;;-2.70;99.90;;;;;;5016133;28;20056;-77
2022/01/11 10:20:09;;;;;;;37.22;18.00;;;-2.60;99.90;;;;;;5016131;28;20036;-77
2022/01/11 10:22:43;;;;;;;32.45;16.63;;;-2.60;99.90;;;;;;5033939;28;20024;-77
2022/01/11 10:25:09;;;;;;;33.30;16.30;;;-2.60;99.90;;;;;;5033819;28;20027;-78
2022/01/11 10:27:36;;;;;;;35.63;17.30;;;-2.60;99.90;;;;;;5033789;28;20111;-77
2022/01/11 10:30:17;;;;;;;45.50;20.13;;;-2.60;99.90;;;;;;5033629;28;20043;-77
2022/01/11 10:32:48;;;;;;;37.38;17.52;;;-2.60;99.90;;;;;;5015851;28;20033;-77
2022/01/11 10:35:29;;;;;;;41.78;16.23;;;-2.50;99.90;;;;;;5015739;28;20014;-77
2022/01/11 10:38:00;;;;;;;32.78;16.77;;;-2.40;99.90;;;;;;5033676;28;20025;-77
2022/01/11 10:40:34;;;;;;;36.00;15.35;;;-2.30;99.90;;;;;;5033513;28;20022;-77
2022/01/11 10:43:04;;;;;;;30.30;16.02;;;-2.30;99.60;;;;;;5033610;28;20029;-77
2022/01/11 10:45:35;;;;;;;39.95;17.38;;;-2.20;99.40;;;;;;5033735;28;20026;-77
2022/01/11 10:48:05;;;;;;;37.80;18.70;;;-2.20;97.80;;;;;;5033486;28;20326;-77
2022/01/11 10:50:37;;;;;;;35.63;16.55;;;-2.20;97.50;;;;;;5015444;28;20113;-77
2022/01/11 10:53:11;;;;;;;30.50;16.17;;;-2.10;96.40;;;;;;5015448;28;20083;-77
2022/01/11 10:55:37;;;;;;;37.50;18.55;;;-2.10;94.90;;;;;;5015478;28;20022;-77
2022/01/11 10:58:06;;;;;;;48.95;24.52;;;-2.00;95.60;;;;;;5015562;28;20021;-75
2022/01/11 11:00:36;;;;;;;49.92;22.00;;;-2.00;95.90;;;;;;5013629;28;20025;-74
2022/01/11 11:03:13;;;;;;;43.97;20.65;;;-1.90;95.50;;;;;;5032943;28;20514;-74
2022/01/11 11:05:46;;;;;;;34.42;16.60;;;-1.90;95.20;;;;;;5033387;28;20548;-74
2022/01/11 11:08:14;;;;;;;91.93;39.97;;;-1.90;95.20;;;;;;5015375;28;20053;-74
2022/01/11 11:10:43;;;;;;;101.72;47.40;;;-1.90;94.40;;;;;;5015168;28;20029;-75
2022/01/11 11:13:15;;;;;;;44.92;21.88;;;-1.80;94.70;;;;;;5033172;28;20368;-75
2022/01/11 11:15:40;;;;;;;24.75;11.90;;;-1.80;94.60;;;;;;5033204;28;20087;-74
2022/01/11 11:18:31;;;;;;;35.47;17.42;;;-1.80;92.90;;;;;;5032954;28;20021;-75
2022/01/11 11:21:10;;;;;;;37.83;19.52;;;-1.80;92.30;;;;;;5048205;28;20024;-75
2022/01/11 11:23:37;;;;;;;25.15;12.07;;;-1.80;92.60;;;;;;5015066;28;20604;-75
2022/01/11 11:26:03;;;;;;;22.60;12.60;;;-1.90;90.10;;;;;;5014944;28;20032;-75
2022/01/11 11:28:29;;;;;;;28.27;13.68;;;-1.90;91.10;;;;;;5032642;28;20048;-75
2022/01/11 11:30:56;;;;;;;22.15;12.55;;;-1.90;91.60;;;;;;5014822;28;20064;-75
2022/01/11 11:33:22;;;;;;;32.40;16.02;;;-1.90;91.20;;;;;;5032499;28;20268;-75
2022/01/11 11:35:50;;;;;;;23.88;11.38;;;-2.00;91.10;;;;;;5014639;28;20455;-75
2022/01/11 11:38:17;;;;;;;47.38;27.30;;;-2.00;90.10;;;;;;5014761;28;20512;-75
2022/01/11 11:40:45;;;;;;;46.50;24.33;;;-1.90;92.70;;;;;;5032639;28;20467;-75
2022/01/11 11:43:12;;;;;;;33.05;16.70;;;-1.90;92.20;;;;;;5014694;28;20067;-75
2022/01/11 11:45:39;;;;;;;24.42;13.13;;;-1.80;92.90;;;;;;5014333;28;20183;-75
2022/01/11 11:48:10;;;;;;;32.28;15.05;;;-1.80;93.00;;;;;;5032691;28;20242;-75
2022/01/11 11:50:51;;;;;;;30.20;14.70;;;-1.80;93.30;;;;;;5014509;28;20053;-75
2022/01/11 11:53:29;;;;;;;98.97;41.92;;;-1.80;90.70;;;;;;5047470;28;20030;-75
2022/01/11 11:56:25;;;;;;;204.32;81.00;;;-1.80;91.10;;;;;;5014397;28;20052;-75
2022/01/11 11:58:57;;;;;;;36.40;19.05;;;-1.80;91.80;;;;;;5032103;28;20024;-78
2022/01/11 12:01:44;;;;;;;49.42;20.05;;;-1.80;90.00;;;;;;5032132;28;20021;-78
2022/01/11 12:04:23;;;;;;;36.00;16.20;;;-1.80;91.10;;;;;;5032050;28;20026;-78
2022/01/11 12:06:49;;;;;;;111.47;43.33;;;-1.80;92.50;;;;;;5032241;28;20419;-78
2022/01/11 12:09:18;;;;;;;66.45;28.30;;;-1.80;92.10;;;;;;5031842;28;20040;-78
2022/01/11 12:11:46;;;;;;;55.80;21.88;;;-1.80;92.20;;;;;;5013980;28;20033;-78
2022/01/11 12:14:32;;;;;;;50.60;23.08;;;-1.80;92.60;;;;;;5013985;28;20037;-78
2022/01/11 12:17:23;;;;;;;130.95;50.42;;;-1.80;93.50;;;;;;5031817;28;20053;-78
2022/01/11 12:19:51;;;;;;;54.65;24.25;;;-1.80;94.70;;;;;;5012640;28;20166;-78
2022/01/11 12:22:19;;;;;;;33.25;14.77;;;-1.80;94.20;;;;;;5030498;28;20022;-78
2022/01/11 12:24:51;;;;;;;58.60;25.58;;;-1.80;90.30;;;;;;5030312;28;20033;-75
2022/01/11 12:27:21;;;;;;;112.53;47.33;;;-1.80;90.20;;;;;;5030302;28;20017;-75
2022/01/11 12:29:54;;;;;;;49.45;22.38;;;-1.70;91.70;;;;;;5030190;28;20117;-75
2022/01/11 12:32:20;;;;;;;86.10;37.28;;;-1.70;90.70;;;;;;5030214;28;20487;-75